createdAt,value
2019-03-13T00:00:56.034Z,23.18
2019-03-13T00:03:31.279Z,18.32
2019-03-13T00:06:05.331Z,19.75
2019-03-13T00:08:39.627Z,20.10
2019-03-13T00:11:15.755Z,19.07
2019-03-13T00:13:49.630Z,20.32
2019-03-13T00:16:23.318Z,17.32
2019-03-13T00:18:57.132Z,19.45
2019-03-13T00:21:31.212Z,16.50
2019-03-13T00:24:04.856Z,21.07
2019-03-13T00:26:38.421Z,17.60
2019-03-13T00:29:12.033Z,15.65
2019-03-13T00:31:46.068Z,23.22
2019-03-13T00:34:19.570Z,21.90
2019-03-13T00:36:53.094Z,16.80
2019-03-13T00:39:26.783Z,20.55
2019-03-13T00:42:00.396Z,18.90
2019-03-13T00:44:33.952Z,17.15
2019-03-13T00:47:07.454Z,15.65
2019-03-13T00:49:42.757Z,17.95
2019-03-13T00:52:16.293Z,18.07
2019-03-13T00:54:49.841Z,18.37
2019-03-13T00:57:23.495Z,16.02
2019-03-13T00:59:57.154Z,12.53
2019-03-13T01:02:40.584Z,14.65
2019-03-13T01:05:17.759Z,15.10
2019-03-13T01:07:51.755Z,15.90
2019-03-13T01:10:25.424Z,16.07
2019-03-13T01:13:00.485Z,15.60
2019-03-13T01:15:34.870Z,13.70
2019-03-13T01:18:09.122Z,13.83
2019-03-13T01:20:43.311Z,13.43
2019-03-13T01:23:17.494Z,14.53
2019-03-13T01:25:51.040Z,11.33
2019-03-13T01:28:24.688Z,12.88
2019-03-13T01:31:16.988Z,11.53
2019-03-13T01:33:50.752Z,12.93
2019-03-13T01:36:24.906Z,12.28
2019-03-13T01:38:58.633Z,12.90
2019-03-13T01:41:32.214Z,14.83
2019-03-13T01:44:05.972Z,12.40
2019-03-13T01:46:41.636Z,13.45
2019-03-13T01:49:15.341Z,11.97
2019-03-13T01:51:49.040Z,15.95
2019-03-13T01:54:22.790Z,15.90
2019-03-13T01:56:56.523Z,10.78
2019-03-13T01:59:30.447Z,12.60
2019-03-13T02:02:05.700Z,12.73
2019-03-13T02:04:40.782Z,11.80
2019-03-13T02:07:14.903Z,11.88
2019-03-13T02:09:48.500Z,11.48
2019-03-13T02:12:22.069Z,11.18
2019-03-13T02:14:55.750Z,13.20
2019-03-13T02:17:30.372Z,12.82
2019-03-13T02:20:06.167Z,14.30
2019-03-13T02:22:39.685Z,10.53
2019-03-13T02:25:13.259Z,11.48
2019-03-13T02:27:47.236Z,11.97
2019-03-13T02:30:22.067Z,11.65
2019-03-13T02:32:55.776Z,10.82
2019-03-13T02:35:29.844Z,11.57
2019-03-13T02:38:03.970Z,9.45
2019-03-13T02:40:38.755Z,11.80
2019-03-13T02:43:12.321Z,8.93
2019-03-13T02:45:46.013Z,11.73
2019-03-13T02:48:24.961Z,12.37
2019-03-13T02:50:58.610Z,9.48
2019-03-13T02:53:41.931Z,11.78
2019-03-13T02:56:37.573Z,9.65
2019-03-13T02:59:11.374Z,12.60
2019-03-13T03:02:24.465Z,12.75
2019-03-13T03:04:58.177Z,13.75
2019-03-13T03:07:31.797Z,14.15
2019-03-13T03:10:05.736Z,14.68
2019-03-13T03:12:39.358Z,15.83
2019-03-13T03:15:18.359Z,14.50
2019-03-13T03:17:52.612Z,11.90
2019-03-13T03:20:26.483Z,15.78
2019-03-13T03:23:00.098Z,9.43
2019-03-13T03:25:33.721Z,13.88
2019-03-13T03:28:07.327Z,16.15
2019-03-13T03:30:41.005Z,12.55
2019-03-13T03:33:14.816Z,11.05
2019-03-13T03:35:48.936Z,14.03
2019-03-13T03:38:23.598Z,9.08
2019-03-13T03:40:58.857Z,13.08
2019-03-13T03:43:40.363Z,11.38
2019-03-13T03:46:09.315Z,9.75
2019-03-13T03:48:45.594Z,11.60
2019-03-13T03:51:20.031Z,20.80
2019-03-13T03:53:57.606Z,10.58
2019-03-13T03:56:32.130Z,14.70
2019-03-13T03:59:06.425Z,14.68
2019-03-13T04:01:41.436Z,19.75
2019-03-13T04:04:15.467Z,21.75
2019-03-13T04:06:50.819Z,21.82
2019-03-13T04:09:26.096Z,17.12
2019-03-13T04:11:59.881Z,31.62
2019-03-13T04:14:34.771Z,23.32
2019-03-13T04:17:08.634Z,32.00
2019-03-13T04:19:42.400Z,16.27
2019-03-13T04:22:16.153Z,32.33
2019-03-13T04:24:49.733Z,44.88
2019-03-13T04:27:24.858Z,22.60
2019-03-13T04:29:58.481Z,19.48
2019-03-13T04:32:32.058Z,20.70
2019-03-13T04:35:05.569Z,15.58
2019-03-13T04:37:39.066Z,11.73
2019-03-13T04:40:12.527Z,13.32
2019-03-13T04:42:45.998Z,9.83
2019-03-13T04:45:19.539Z,11.55
2019-03-13T04:47:53.603Z,7.97
2019-03-13T04:50:27.121Z,7.78
2019-03-13T04:53:00.681Z,11.40
2019-03-13T04:55:34.549Z,10.20
2019-03-13T04:58:09.011Z,7.03
2019-03-13T05:00:42.759Z,6.97
2019-03-13T05:03:16.225Z,13.35
2019-03-13T05:06:02.175Z,9.85
2019-03-13T05:08:45.390Z,8.10
2019-03-13T05:11:18.119Z,9.43
2019-03-13T05:13:51.581Z,7.95
2019-03-13T05:16:26.127Z,9.13
2019-03-13T05:18:59.564Z,12.75
2019-03-13T05:21:33.028Z,10.08
2019-03-13T05:24:06.399Z,6.78
2019-03-13T05:26:39.967Z,8.50
2019-03-13T05:29:15.465Z,7.10
2019-03-13T05:31:48.818Z,13.65
2019-03-13T05:34:22.256Z,18.62
2019-03-13T05:36:56.599Z,19.75
2019-03-13T05:39:30.010Z,8.35
2019-03-13T05:42:03.734Z,13.45
2019-03-13T05:44:37.083Z,26.95
2019-03-13T05:47:10.415Z,38.88
2019-03-13T05:49:43.772Z,29.77
2019-03-13T05:52:17.216Z,29.63
2019-03-13T05:54:50.657Z,17.12
2019-03-13T05:57:24.032Z,11.83
2019-03-13T05:59:57.433Z,8.35
2019-03-13T06:02:31.455Z,11.40
2019-03-13T06:05:06.082Z,10.55
2019-03-13T06:07:39.655Z,8.38
2019-03-13T06:10:13.155Z,7.62
2019-03-13T06:12:46.936Z,6.20
2019-03-13T06:15:20.493Z,5.28
2019-03-13T06:17:54.324Z,5.03
2019-03-13T06:20:27.826Z,6.12
2019-03-13T06:23:01.268Z,5.58
2019-03-13T06:25:35.153Z,59.93
2019-03-13T06:28:08.553Z,14.40
2019-03-13T06:30:44.208Z,6.67
2019-03-13T06:33:20.064Z,16.25
2019-03-13T06:35:53.623Z,10.43
2019-03-13T06:38:27.118Z,9.30
2019-03-13T06:41:00.945Z,7.15
2019-03-13T06:43:34.397Z,9.25
2019-03-13T06:46:07.909Z,8.40
2019-03-13T06:48:41.388Z,8.28
2019-03-13T06:51:14.861Z,8.63
2019-03-13T06:53:48.469Z,9.00
2019-03-13T06:56:22.352Z,10.82
2019-03-13T06:59:17.794Z,9.23
2019-03-13T07:02:18.894Z,8.73
2019-03-13T07:05:02.576Z,9.15
2019-03-13T07:08:12.880Z,7.97
2019-03-13T07:11:07.982Z,9.10
2019-03-13T07:13:50.290Z,7.78
2019-03-13T07:16:51.368Z,8.35
2019-03-13T07:19:35.604Z,7.28
2019-03-13T07:22:26.827Z,8.50
2019-03-13T07:25:15.867Z,7.97
2019-03-13T07:27:59.478Z,7.50
2019-03-13T07:30:48.794Z,7.70
2019-03-13T07:33:43.947Z,6.25
2019-03-13T07:36:37.505Z,8.58
2019-03-13T07:39:35.497Z,6.87
2019-03-13T07:42:27.583Z,6.65
2019-03-13T07:45:35.175Z,7.35
2019-03-13T07:48:17.912Z,10.70
2019-03-13T07:51:13.247Z,11.88
2019-03-13T07:54:11.213Z,11.48
2019-03-13T07:57:13.448Z,11.33
2019-03-13T07:59:58.816Z,22.20
2019-03-13T08:02:49.513Z,10.13
2019-03-13T08:05:47.689Z,16.35
2019-03-13T08:08:44.165Z,10.82
2019-03-13T08:11:35.197Z,17.80
2019-03-13T08:14:26.188Z,11.08
2019-03-13T08:17:36.379Z,21.00
2019-03-13T08:20:29.295Z,11.90
2019-03-13T08:23:19.932Z,10.78
2019-03-13T08:26:11.992Z,9.20
2019-03-13T08:29:04.099Z,9.13
2019-03-13T08:31:56.184Z,7.78
2019-03-13T08:34:54.337Z,10.72
2019-03-13T08:37:49.726Z,8.48
2019-03-13T08:40:44.902Z,10.23
2019-03-13T08:43:43.042Z,14.55
2019-03-13T08:46:38.210Z,10.95
2019-03-13T08:49:39.739Z,11.53
2019-03-13T08:52:33.455Z,7.17
2019-03-13T08:55:26.953Z,11.20
2019-03-13T08:58:12.321Z,7.67
2019-03-13T09:01:12.077Z,8.93
2019-03-13T09:03:56.453Z,11.20
2019-03-13T09:06:51.691Z,9.55
2019-03-13T09:09:43.942Z,8.25
2019-03-13T09:12:45.311Z,8.58
2019-03-13T09:15:29.247Z,7.15
2019-03-13T09:18:27.823Z,7.75
2019-03-13T09:21:22.941Z,6.70
2019-03-13T09:24:02.646Z,11.97
2019-03-13T09:26:53.481Z,8.85
2019-03-13T09:29:49.794Z,8.58
2019-03-13T09:32:47.924Z,7.10
2019-03-13T09:35:42.769Z,12.98
2019-03-13T09:38:30.906Z,6.60
2019-03-13T09:41:32.093Z,8.70
2019-03-13T09:44:34.480Z,8.33
2019-03-13T09:47:41.897Z,10.70
2019-03-13T09:50:49.816Z,8.55
2019-03-13T09:53:33.509Z,10.55
2019-03-13T09:56:21.495Z,8.43
2019-03-13T09:59:19.800Z,12.33
2019-03-13T10:02:11.950Z,10.72
2019-03-13T10:05:22.292Z,6.35
2019-03-13T10:08:17.403Z,9.85
2019-03-13T10:11:25.433Z,9.43
2019-03-13T10:14:09.110Z,6.58
2019-03-13T10:17:11.048Z,43.48
2019-03-13T10:19:54.503Z,12.20
2019-03-13T10:22:46.813Z,12.20
2019-03-13T10:25:53.214Z,62.05
2019-03-13T10:28:45.274Z,22.77
2019-03-13T10:31:37.312Z,15.03
2019-03-13T10:34:29.408Z,11.53
2019-03-13T10:37:19.671Z,7.80
2019-03-13T10:40:11.022Z,9.68
2019-03-13T10:43:02.158Z,16.50
2019-03-13T10:45:48.320Z,57.15
2019-03-13T10:48:27.966Z,23.67
2019-03-13T10:51:17.720Z,16.12
2019-03-13T10:54:06.807Z,45.98
2019-03-13T10:56:57.430Z,11.95
2019-03-13T10:59:52.519Z,4.78
2019-03-13T11:02:39.514Z,16.80
2019-03-13T11:05:31.890Z,21.20
2019-03-13T11:08:10.830Z,14.93
2019-03-13T11:11:03.303Z,30.45
2019-03-13T11:14:14.896Z,44.38
2019-03-13T11:16:51.889Z,32.40
2019-03-13T11:19:31.899Z,13.70
2019-03-13T11:22:16.498Z,30.08
2019-03-13T11:25:03.674Z,30.25
2019-03-13T11:28:01.722Z,150.62
2019-03-13T11:30:43.766Z,119.15
2019-03-13T11:33:43.057Z,66.10
2019-03-13T11:36:29.199Z,54.93
2019-03-13T11:39:33.158Z,23.52
2019-03-13T11:42:35.270Z,15.28
2019-03-13T11:45:39.515Z,9.78
2019-03-13T11:48:30.265Z,17.20
2019-03-13T11:51:22.310Z,91.82
2019-03-13T11:54:04.234Z,10.93
2019-03-13T11:56:46.677Z,38.40
2019-03-13T11:59:38.061Z,55.95
2019-03-13T12:02:48.399Z,19.45
2019-03-13T12:05:37.675Z,20.97
2019-03-13T12:08:32.332Z,8.73
2019-03-13T12:11:23.234Z,10.70
2019-03-13T12:14:14.037Z,7.83
2019-03-13T12:16:55.685Z,7.72
2019-03-13T12:19:50.449Z,32.50
2019-03-13T12:22:39.096Z,11.35
2019-03-13T12:25:26.559Z,10.43
2019-03-13T12:28:27.349Z,7.58
2019-03-13T12:31:19.389Z,5.83
2019-03-13T12:34:12.443Z,6.75
2019-03-13T12:36:58.156Z,8.20
2019-03-13T12:39:53.006Z,14.28
2019-03-13T12:42:41.569Z,19.15
2019-03-13T12:45:34.863Z,4.33
2019-03-13T12:48:16.976Z,4.87
2019-03-13T12:51:24.716Z,14.18
2019-03-13T12:54:16.840Z,5.33
2019-03-13T12:57:15.468Z,12.15
2019-03-13T13:00:07.633Z,12.85
2019-03-13T13:03:10.736Z,6.92
2019-03-13T13:06:02.045Z,5.42
2019-03-13T13:08:59.991Z,6.90
2019-03-13T13:11:51.703Z,7.78
2019-03-13T13:14:42.545Z,6.37
2019-03-13T13:17:21.849Z,7.72
2019-03-13T13:19:55.453Z,4.28
2019-03-13T13:22:29.765Z,6.17
2019-03-13T13:25:03.356Z,5.72
2019-03-13T13:27:37.277Z,9.98
2019-03-13T13:30:12.087Z,10.13
2019-03-13T13:32:45.759Z,10.63
2019-03-13T13:35:19.250Z,6.12
2019-03-13T13:37:52.720Z,4.45
2019-03-13T13:40:26.096Z,4.95
2019-03-13T13:42:59.553Z,8.90
2019-03-13T13:46:15.557Z,11.35
2019-03-13T13:48:49.997Z,9.43
2019-03-13T13:51:23.483Z,9.48
2019-03-13T13:53:56.937Z,8.13
2019-03-13T13:56:30.348Z,12.23
2019-03-13T13:59:03.793Z,7.97
2019-03-13T14:01:37.465Z,7.78
2019-03-13T14:04:10.929Z,5.22
2019-03-13T14:06:44.126Z,5.58
2019-03-13T14:09:17.308Z,6.15
2019-03-13T14:11:52.324Z,6.30
2019-03-13T14:14:26.537Z,5.37
2019-03-13T14:16:59.708Z,7.80
2019-03-13T14:19:32.871Z,7.45
2019-03-13T14:22:06.014Z,8.18
2019-03-13T14:24:39.210Z,10.60
2019-03-13T14:27:14.942Z,8.50
2019-03-13T14:29:47.473Z,8.08
2019-03-13T14:32:20.619Z,7.20
2019-03-13T14:35:09.518Z,8.40
2019-03-13T14:38:13.757Z,5.60
2019-03-13T14:40:54.439Z,5.78
2019-03-13T14:43:40.420Z,10.03
2019-03-13T14:46:17.951Z,5.62
2019-03-13T14:48:51.138Z,8.00
2019-03-13T14:51:28.612Z,6.95
2019-03-13T14:54:07.188Z,7.12
2019-03-13T14:56:42.394Z,8.50
2019-03-13T14:59:15.557Z,13.68
2019-03-13T15:01:48.821Z,5.45
2019-03-13T15:04:23.575Z,9.68
2019-03-13T15:06:56.674Z,5.55
2019-03-13T15:09:29.882Z,5.65
2019-03-13T15:12:02.977Z,4.87
2019-03-13T15:14:36.208Z,11.93
2019-03-13T15:17:09.634Z,22.25
2019-03-13T15:19:42.836Z,14.10
2019-03-13T15:22:16.067Z,14.83
2019-03-13T15:24:49.373Z,16.48
2019-03-13T15:27:22.609Z,11.78
2019-03-13T15:29:55.780Z,20.62
2019-03-13T15:32:29.029Z,26.90
2019-03-13T15:35:02.191Z,24.00
2019-03-13T15:37:35.541Z,14.18
2019-03-13T15:40:10.627Z,21.73
2019-03-13T15:42:43.981Z,14.65
2019-03-13T15:45:19.294Z,7.72
2019-03-13T15:47:53.108Z,9.20
2019-03-13T15:50:26.478Z,14.50
2019-03-13T15:52:59.927Z,14.28
2019-03-13T15:55:33.185Z,15.32
2019-03-13T15:58:09.549Z,15.90
2019-03-13T16:00:42.981Z,9.40
2019-03-13T16:03:16.354Z,23.73
2019-03-13T16:05:49.753Z,26.73
2019-03-13T16:08:23.255Z,22.25
2019-03-13T16:10:56.616Z,25.32
2019-03-13T16:13:30.032Z,17.05
2019-03-13T16:16:03.391Z,20.08
2019-03-13T16:18:36.778Z,10.05
2019-03-13T16:21:10.008Z,10.72
2019-03-13T16:23:44.874Z,10.13
2019-03-13T16:26:18.581Z,14.87
2019-03-13T16:28:52.280Z,17.12
2019-03-13T16:31:26.033Z,28.23
2019-03-13T16:33:59.862Z,44.88
2019-03-13T16:36:33.902Z,34.88
2019-03-13T16:39:09.153Z,26.12
2019-03-13T16:41:43.759Z,18.82
2019-03-13T16:44:18.100Z,22.98
2019-03-13T16:46:52.645Z,21.48
2019-03-13T16:49:26.957Z,23.85
2019-03-13T16:52:04.754Z,29.12
2019-03-13T16:54:40.169Z,31.20
2019-03-13T16:57:15.123Z,33.95
2019-03-13T16:59:59.986Z,40.35
2019-03-13T17:02:24.481Z,55.05
2019-03-13T17:04:58.670Z,44.77
2019-03-13T17:07:32.632Z,40.92
2019-03-13T17:10:06.923Z,39.10
2019-03-13T17:12:40.922Z,40.05
2019-03-13T17:15:17.977Z,37.78
2019-03-13T17:17:51.847Z,37.95
2019-03-13T17:20:27.599Z,35.70
2019-03-13T17:23:01.602Z,38.70
2019-03-13T17:25:35.770Z,35.13
2019-03-13T17:28:09.984Z,36.65
2019-03-13T17:30:43.615Z,29.18
2019-03-13T17:33:17.028Z,18.48
2019-03-13T17:35:50.464Z,17.10
2019-03-13T17:38:23.940Z,20.77
2019-03-13T17:40:57.962Z,19.32
2019-03-13T17:43:39.042Z,21.70
2019-03-13T17:46:13.729Z,21.85
2019-03-13T17:48:47.237Z,15.05
2019-03-13T17:51:21.152Z,14.98
2019-03-13T17:53:54.616Z,11.85
2019-03-13T17:56:28.538Z,13.05
2019-03-13T17:59:02.510Z,13.32
2019-03-13T18:01:38.266Z,21.37
2019-03-13T18:04:12.365Z,25.85
2019-03-13T18:06:46.369Z,26.60
2019-03-13T18:09:19.805Z,26.62
2019-03-13T18:11:55.736Z,33.63
2019-03-13T18:14:32.071Z,41.02
2019-03-13T18:17:05.679Z,37.78
2019-03-13T18:19:39.579Z,41.28
2019-03-13T18:22:13.181Z,36.75
2019-03-13T18:24:52.075Z,40.75
2019-03-13T18:27:38.922Z,28.77
2019-03-13T18:30:21.422Z,29.52
2019-03-13T18:33:11.160Z,24.95
2019-03-13T18:35:47.742Z,29.87
2019-03-13T18:38:48.400Z,29.63
2019-03-13T18:41:23.551Z,33.73
2019-03-13T18:43:57.142Z,34.08
2019-03-13T18:46:30.706Z,35.28
2019-03-13T18:49:08.985Z,39.90
2019-03-13T18:51:42.986Z,30.15
2019-03-13T18:54:16.475Z,29.07
2019-03-13T18:56:49.912Z,29.05
2019-03-13T18:59:25.965Z,22.85
2019-03-13T19:01:59.355Z,20.25
2019-03-13T19:04:32.883Z,22.42
2019-03-13T19:07:06.349Z,19.87
2019-03-13T19:09:39.998Z,19.77
2019-03-13T19:12:14.237Z,21.07
2019-03-13T19:14:48.796Z,27.75
2019-03-13T19:17:22.582Z,28.73
2019-03-13T19:19:56.019Z,44.42
2019-03-13T19:22:29.452Z,63.50
2019-03-13T19:25:03.014Z,57.58
2019-03-13T19:27:36.492Z,36.58
2019-03-13T19:30:15.769Z,28.40
2019-03-13T19:32:50.231Z,23.77
2019-03-13T19:35:23.687Z,21.23
2019-03-13T19:37:58.163Z,25.65
2019-03-13T19:40:31.613Z,23.92
2019-03-13T19:43:05.027Z,25.72
2019-03-13T19:45:43.246Z,22.07
2019-03-13T19:48:18.770Z,27.40
2019-03-13T19:50:56.394Z,27.27
2019-03-13T19:53:34.561Z,25.48
2019-03-13T19:56:12.189Z,21.37
2019-03-13T19:58:45.704Z,21.60
2019-03-13T20:01:19.087Z,21.07
2019-03-13T20:03:55.324Z,29.77
2019-03-13T20:06:27.629Z,27.62
2019-03-13T20:09:01.254Z,29.67
2019-03-13T20:11:36.297Z,25.35
2019-03-13T20:14:09.854Z,27.85
2019-03-13T20:16:46.447Z,26.95
2019-03-13T20:19:18.737Z,44.30
2019-03-13T20:21:52.181Z,34.30
2019-03-13T20:24:25.539Z,43.45
2019-03-13T20:26:59.027Z,30.30
2019-03-13T20:29:32.543Z,17.95
2019-03-13T20:32:06.016Z,18.85
2019-03-13T20:34:39.406Z,24.65
2019-03-13T20:37:13.206Z,26.48
2019-03-13T20:39:46.677Z,22.05
2019-03-13T20:42:20.143Z,30.30
2019-03-13T20:44:53.668Z,24.70
2019-03-13T20:47:31.011Z,28.30
2019-03-13T20:50:04.438Z,28.20
2019-03-13T20:52:38.162Z,28.20
2019-03-13T20:55:13.046Z,22.02
2019-03-13T20:57:46.771Z,19.30
2019-03-13T21:00:23.303Z,24.43
2019-03-13T21:02:56.683Z,23.98
2019-03-13T21:05:30.107Z,25.00
2019-03-13T21:08:03.441Z,21.48
2019-03-13T21:10:36.945Z,25.35
2019-03-13T21:13:10.241Z,23.15
2019-03-13T21:15:43.995Z,33.60
2019-03-13T21:18:17.470Z,18.90
2019-03-13T21:20:50.829Z,26.40
2019-03-13T21:23:24.191Z,23.42
2019-03-13T21:25:57.521Z,23.55
2019-03-13T21:28:30.842Z,27.07
2019-03-13T21:31:04.228Z,21.23
2019-03-13T21:33:38.038Z,35.98
2019-03-13T21:36:11.466Z,26.40
2019-03-13T21:38:44.892Z,29.12
2019-03-13T21:41:18.182Z,20.88
2019-03-13T21:43:51.723Z,19.48
2019-03-13T21:46:25.825Z,31.00
2019-03-13T21:48:59.255Z,18.23
2019-03-13T21:51:32.535Z,20.92
2019-03-13T21:54:05.843Z,20.68
2019-03-13T21:56:39.195Z,19.75
2019-03-13T21:59:12.605Z,23.35
2019-03-13T22:01:46.073Z,14.07
2019-03-13T22:04:24.007Z,15.68
2019-03-13T22:06:55.389Z,14.28
2019-03-13T22:09:29.001Z,17.12
2019-03-13T22:12:02.533Z,17.98
2019-03-13T22:14:38.405Z,19.17
2019-03-13T22:17:11.185Z,15.15
2019-03-13T22:19:44.719Z,15.08
2019-03-13T22:22:18.614Z,10.45
2019-03-13T22:24:53.056Z,10.45
2019-03-13T22:27:26.514Z,13.85
2019-03-13T22:30:00.386Z,8.75
2019-03-13T22:32:37.654Z,7.12
2019-03-13T22:35:11.167Z,12.80
2019-03-13T22:37:44.647Z,14.30
2019-03-13T22:40:18.423Z,10.98
2019-03-13T22:42:52.701Z,9.60
2019-03-13T22:45:26.171Z,11.68
2019-03-13T22:47:59.615Z,10.65
2019-03-13T22:50:33.228Z,10.05
2019-03-13T22:53:06.744Z,10.00
2019-03-13T22:55:41.155Z,13.38
2019-03-13T22:58:14.956Z,10.53
2019-03-13T23:01:22.612Z,12.43
2019-03-13T23:03:56.417Z,15.93
2019-03-13T23:06:30.042Z,14.78
2019-03-13T23:09:03.195Z,12.82
2019-03-13T23:11:43.114Z,14.00
2019-03-13T23:14:16.284Z,11.83
2019-03-13T23:16:49.457Z,9.38
2019-03-13T23:19:22.655Z,14.23
2019-03-13T23:21:55.828Z,10.75
2019-03-13T23:24:28.999Z,12.40
2019-03-13T23:27:02.177Z,10.95
2019-03-13T23:29:35.834Z,10.53
2019-03-13T23:32:08.983Z,9.30
2019-03-13T23:34:42.141Z,9.18
2019-03-13T23:37:15.331Z,8.40
2019-03-13T23:39:48.915Z,10.48
2019-03-13T23:42:23.224Z,8.30
2019-03-13T23:44:56.385Z,10.45
2019-03-13T23:47:29.514Z,10.53
2019-03-13T23:50:02.646Z,7.90
2019-03-13T23:52:35.807Z,9.58
2019-03-13T23:55:08.976Z,9.75
2019-03-13T23:57:42.122Z,6.95
